CheckWX is a tool to help pilots better visualize weather data.  It is not intended as a substitute for an official pre-flight weather briefing.

20:58:02 UTC

KTVR METAR
Vicksburg Tallulah Regional Airport
Tallulah, Louisiana, USA
Current

1 hour ago

KTVR 171953Z AUTO 05006KT 10SM CLR 36/20 A2998 RMK AO2 SLP156 T03610200
Observed
Sep-17 @ 19:53 UTC
Wind
  • 050° at 6 KTS
Visibility
10 SM
Flight Rules
VFR
Cloud Levels
  • Clear skies
Temperature
36°C / 97°F
Dewpoint
20°C / 68°F
Humidity
39%
Altimeter
29.98" Hg
Pressure
1015.22 hPa
Previous

2 hours ago

KTVR 171853Z AUTO 06008KT 10SM FEW060 36/21 A3000 RMK AO2 SLP164 T03560206
Observed
Sep-17 @ 18:53 UTC
Wind
  • 060° at 8 KTS
Visibility
10 SM
Flight Rules
VFR
Cloud Levels
  • Few at 6,000' AGL
Temperature
36°C / 97°F
Dewpoint
21°C / 70°F
Heat Index
40°C / 104°F
Humidity
42%
Altimeter
30" Hg
Pressure
1015.92 hPa
Previous

3 hours ago

KTVR 171753Z AUTO 06008KT 10SM CLR 36/22 A3002 RMK AO2 SLP172 T03560217 10356 20217 58011
Observed
Sep-17 @ 17:53 UTC
Wind
  • 060° at 8 KTS
Visibility
10 SM
Flight Rules
VFR
Cloud Levels
  • Clear skies
Temperature
36°C / 97°F
Dewpoint
22°C / 72°F
Heat Index
41°C / 106°F
Humidity
44%
Altimeter
30.02" Hg
Pressure
1016.62 hPa